sensor_id;sensor_type;location;lat;lon;timestamp;P1;durP1;ratioP1;P2;durP2;ratioP2
5225;SDS011;2632;51.666;7.146;2023-01-29T00:02:05;59.00;;;22.80;;
5225;SDS011;2632;51.666;7.146;2023-01-29T00:04:31;52.77;;;22.20;;
5225;SDS011;2632;51.666;7.146;2023-01-29T00:06:58;48.47;;;21.40;;
5225;SDS011;2632;51.666;7.146;2023-01-29T00:09:25;61.97;;;25.03;;
5225;SDS011;2632;51.666;7.146;2023-01-29T00:11:53;68.20;;;26.03;;
5225;SDS011;2632;51.666;7.146;2023-01-29T00:14:19;63.50;;;22.70;;
5225;SDS011;2632;51.666;7.146;2023-01-29T00:16:46;52.27;;;22.43;;
5225;SDS011;2632;51.666;7.146;2023-01-29T00:19:13;60.63;;;25.50;;
5225;SDS011;2632;51.666;7.146;2023-01-29T00:21:39;63.33;;;24.33;;
5225;SDS011;2632;51.666;7.146;2023-01-29T00:24:06;65.17;;;23.30;;
5225;SDS011;2632;51.666;7.146;2023-01-29T00:26:33;57.10;;;23.93;;
5225;SDS011;2632;51.666;7.146;2023-01-29T00:29:00;56.33;;;24.70;;
5225;SDS011;2632;51.666;7.146;2023-01-29T00:31:27;54.50;;;23.90;;
5225;SDS011;2632;51.666;7.146;2023-01-29T00:33:54;52.17;;;22.10;;
5225;SDS011;2632;51.666;7.146;2023-01-29T00:36:21;67.67;;;25.10;;
5225;SDS011;2632;51.666;7.146;2023-01-29T00:38:59;54.80;;;22.57;;
5225;SDS011;2632;51.666;7.146;2023-01-29T00:41:28;55.13;;;22.27;;
5225;SDS011;2632;51.666;7.146;2023-01-29T00:44:15;54.13;;;22.50;;
5225;SDS011;2632;51.666;7.146;2023-01-29T00:47:01;56.60;;;24.57;;
5225;SDS011;2632;51.666;7.146;2023-01-29T00:49:29;71.20;;;24.73;;
5225;SDS011;2632;51.666;7.146;2023-01-29T00:51:55;59.00;;;24.20;;
5225;SDS011;2632;51.666;7.146;2023-01-29T00:54:41;56.10;;;23.40;;
5225;SDS011;2632;51.666;7.146;2023-01-29T00:57:07;56.07;;;24.07;;
5225;SDS011;2632;51.666;7.146;2023-01-29T00:59:34;59.63;;;24.70;;
5225;SDS011;2632;51.666;7.146;2023-01-29T01:02:01;54.70;;;23.37;;
5225;SDS011;2632;51.666;7.146;2023-01-29T01:04:46;56.43;;;23.90;;
5225;SDS011;2632;51.666;7.146;2023-01-29T01:07:12;55.10;;;22.37;;
5225;SDS011;2632;51.666;7.146;2023-01-29T01:09:39;59.50;;;24.03;;
5225;SDS011;2632;51.666;7.146;2023-01-29T01:12:24;59.07;;;24.50;;
5225;SDS011;2632;51.666;7.146;2023-01-29T01:14:51;65.70;;;24.37;;
5225;SDS011;2632;51.666;7.146;2023-01-29T01:17:17;54.47;;;23.40;;
5225;SDS011;2632;51.666;7.146;2023-01-29T01:19:44;62.57;;;22.13;;
5225;SDS011;2632;51.666;7.146;2023-01-29T01:22:11;52.00;;;22.43;;
5225;SDS011;2632;51.666;7.146;2023-01-29T01:24:38;56.73;;;22.90;;
5225;SDS011;2632;51.666;7.146;2023-01-29T01:27:05;60.20;;;22.80;;
5225;SDS011;2632;51.666;7.146;2023-01-29T01:29:32;50.50;;;21.40;;
5225;SDS011;2632;51.666;7.146;2023-01-29T01:31:58;56.83;;;21.80;;
5225;SDS011;2632;51.666;7.146;2023-01-29T01:34:25;58.57;;;24.47;;
5225;SDS011;2632;51.666;7.146;2023-01-29T01:36:52;59.80;;;23.67;;
5225;SDS011;2632;51.666;7.146;2023-01-29T01:39:21;55.73;;;23.80;;
5225;SDS011;2632;51.666;7.146;2023-01-29T01:41:48;58.50;;;22.97;;
5225;SDS011;2632;51.666;7.146;2023-01-29T01:44:58;64.90;;;23.43;;
5225;SDS011;2632;51.666;7.146;2023-01-29T01:47:16;53.90;;;22.87;;
5225;SDS011;2632;51.666;7.146;2023-01-29T01:49:55;53.10;;;21.33;;
5225;SDS011;2632;51.666;7.146;2023-01-29T01:52:38;56.93;;;22.83;;
5225;SDS011;2632;51.666;7.146;2023-01-29T01:55:11;58.67;;;22.57;;
5225;SDS011;2632;51.666;7.146;2023-01-29T01:57:43;57.23;;;23.47;;
5225;SDS011;2632;51.666;7.146;2023-01-29T02:00:16;54.47;;;22.73;;
5225;SDS011;2632;51.666;7.146;2023-01-29T02:02:48;56.10;;;22.57;;
5225;SDS011;2632;51.666;7.146;2023-01-29T02:05:34;51.37;;;21.73;;
5225;SDS011;2632;51.666;7.146;2023-01-29T02:08:29;78.77;;;24.23;;
5225;SDS011;2632;51.666;7.146;2023-01-29T02:11:23;53.77;;;23.37;;
5225;SDS011;2632;51.666;7.146;2023-01-29T02:13:53;56.07;;;22.10;;
5225;SDS011;2632;51.666;7.146;2023-01-29T02:16:24;57.33;;;22.00;;
5225;SDS011;2632;51.666;7.146;2023-01-29T02:18:52;51.73;;;20.80;;
5225;SDS011;2632;51.666;7.146;2023-01-29T02:35:45;56.47;;;20.83;;
5225;SDS011;2632;51.666;7.146;2023-01-29T02:41:41;57.53;;;23.80;;
5225;SDS011;2632;51.666;7.146;2023-01-29T02:44:19;56.43;;;23.10;;
5225;SDS011;2632;51.666;7.146;2023-01-29T02:52:14;56.50;;;21.67;;
5225;SDS011;2632;51.666;7.146;2023-01-29T02:55:03;61.47;;;21.83;;
5225;SDS011;2632;51.666;7.146;2023-01-29T02:57:38;68.40;;;23.57;;
5225;SDS011;2632;51.666;7.146;2023-01-29T03:03:02;61.87;;;23.33;;
5225;SDS011;2632;51.666;7.146;2023-01-29T03:05:44;61.53;;;21.50;;
5225;SDS011;2632;51.666;7.146;2023-01-29T03:08:45;65.33;;;24.70;;
5225;SDS011;2632;51.666;7.146;2023-01-29T03:11:16;59.33;;;23.90;;
5225;SDS011;2632;51.666;7.146;2023-01-29T03:13:47;57.40;;;23.73;;
5225;SDS011;2632;51.666;7.146;2023-01-29T03:16:39;59.13;;;22.23;;
5225;SDS011;2632;51.666;7.146;2023-01-29T03:19:15;67.13;;;21.77;;
5225;SDS011;2632;51.666;7.146;2023-01-29T03:21:50;64.23;;;23.47;;
5225;SDS011;2632;51.666;7.146;2023-01-29T03:24:29;59.20;;;22.67;;
5225;SDS011;2632;51.666;7.146;2023-01-29T03:27:42;63.10;;;23.33;;
5225;SDS011;2632;51.666;7.146;2023-01-29T03:30:31;54.27;;;22.03;;
5225;SDS011;2632;51.666;7.146;2023-01-29T03:33:19;59.87;;;23.93;;
5225;SDS011;2632;51.666;7.146;2023-01-29T03:35:52;62.90;;;24.07;;
5225;SDS011;2632;51.666;7.146;2023-01-29T03:38:25;60.83;;;22.87;;
5225;SDS011;2632;51.666;7.146;2023-01-29T03:40:55;68.70;;;25.07;;
5225;SDS011;2632;51.666;7.146;2023-01-29T03:46:34;53.10;;;21.50;;
5225;SDS011;2632;51.666;7.146;2023-01-29T03:49:57;53.17;;;22.17;;
5225;SDS011;2632;51.666;7.146;2023-01-29T03:52:37;61.27;;;23.77;;
5225;SDS011;2632;51.666;7.146;2023-01-29T03:58:04;60.47;;;22.27;;
5225;SDS011;2632;51.666;7.146;2023-01-29T04:01:28;56.27;;;21.10;;
5225;SDS011;2632;51.666;7.146;2023-01-29T04:03:55;55.13;;;21.87;;
5225;SDS011;2632;51.666;7.146;2023-01-29T04:06:37;57.00;;;22.57;;
5225;SDS011;2632;51.666;7.146;2023-01-29T04:11:40;53.57;;;20.47;;
5225;SDS011;2632;51.666;7.146;2023-01-29T04:14:10;63.17;;;23.63;;
5225;SDS011;2632;51.666;7.146;2023-01-29T04:16:43;55.37;;;22.40;;
5225;SDS011;2632;51.666;7.146;2023-01-29T04:19:13;61.30;;;23.00;;
5225;SDS011;2632;51.666;7.146;2023-01-29T04:21:40;58.60;;;23.30;;
5225;SDS011;2632;51.666;7.146;2023-01-29T04:24:06;57.40;;;21.43;;
5225;SDS011;2632;51.666;7.146;2023-01-29T04:29:14;61.80;;;21.97;;
5225;SDS011;2632;51.666;7.146;2023-01-29T04:34:48;59.60;;;23.77;;
5225;SDS011;2632;51.666;7.146;2023-01-29T04:37:41;54.67;;;21.67;;
5225;SDS011;2632;51.666;7.146;2023-01-29T04:40:19;63.60;;;23.63;;
5225;SDS011;2632;51.666;7.146;2023-01-29T04:45:35;52.50;;;21.40;;
5225;SDS011;2632;51.666;7.146;2023-01-29T04:50:43;56.13;;;21.63;;
5225;SDS011;2632;51.666;7.146;2023-01-29T04:53:26;54.07;;;21.57;;
5225;SDS011;2632;51.666;7.146;2023-01-29T04:56:15;64.80;;;23.20;;
5225;SDS011;2632;51.666;7.146;2023-01-29T04:58:46;56.60;;;20.17;;
5225;SDS011;2632;51.666;7.146;2023-01-29T05:01:17;50.97;;;19.80;;
5225;SDS011;2632;51.666;7.146;2023-01-29T05:03:46;52.87;;;21.40;;
5225;SDS011;2632;51.666;7.146;2023-01-29T05:06:16;55.30;;;21.33;;
5225;SDS011;2632;51.666;7.146;2023-01-29T05:08:44;58.97;;;20.63;;
5225;SDS011;2632;51.666;7.146;2023-01-29T05:11:14;49.77;;;19.33;;
5225;SDS011;2632;51.666;7.146;2023-01-29T05:13:42;57.27;;;21.40;;
5225;SDS011;2632;51.666;7.146;2023-01-29T05:16:11;56.40;;;21.10;;
5225;SDS011;2632;51.666;7.146;2023-01-29T05:18:42;54.20;;;20.40;;
5225;SDS011;2632;51.666;7.146;2023-01-29T05:21:08;52.23;;;18.80;;
5225;SDS011;2632;51.666;7.146;2023-01-29T05:23:35;50.17;;;19.63;;
5225;SDS011;2632;51.666;7.146;2023-01-29T05:26:02;52.47;;;19.53;;
5225;SDS011;2632;51.666;7.146;2023-01-29T05:28:29;48.50;;;19.57;;
5225;SDS011;2632;51.666;7.146;2023-01-29T05:30:56;49.07;;;19.93;;
5225;SDS011;2632;51.666;7.146;2023-01-29T05:33:24;48.60;;;19.27;;
5225;SDS011;2632;51.666;7.146;2023-01-29T05:35:55;51.93;;;17.77;;
5225;SDS011;2632;51.666;7.146;2023-01-29T05:38:24;51.53;;;19.17;;
5225;SDS011;2632;51.666;7.146;2023-01-29T05:40:51;56.13;;;19.13;;
5225;SDS011;2632;51.666;7.146;2023-01-29T05:43:20;43.60;;;16.87;;
5225;SDS011;2632;51.666;7.146;2023-01-29T05:45:58;45.83;;;17.90;;
5225;SDS011;2632;51.666;7.146;2023-01-29T05:48:26;43.80;;;16.77;;
5225;SDS011;2632;51.666;7.146;2023-01-29T05:50:58;51.83;;;17.70;;
5225;SDS011;2632;51.666;7.146;2023-01-29T05:53:29;51.80;;;18.10;;
5225;SDS011;2632;51.666;7.146;2023-01-29T05:55:59;53.83;;;17.30;;
5225;SDS011;2632;51.666;7.146;2023-01-29T05:58:26;43.53;;;17.47;;
5225;SDS011;2632;51.666;7.146;2023-01-29T06:00:53;51.00;;;19.53;;
5225;SDS011;2632;51.666;7.146;2023-01-29T06:03:19;49.90;;;18.33;;
5225;SDS011;2632;51.666;7.146;2023-01-29T06:05:46;50.83;;;18.13;;
5225;SDS011;2632;51.666;7.146;2023-01-29T06:08:12;46.43;;;17.13;;
5225;SDS011;2632;51.666;7.146;2023-01-29T06:10:39;47.60;;;16.53;;
5225;SDS011;2632;51.666;7.146;2023-01-29T06:13:06;48.83;;;18.93;;
5225;SDS011;2632;51.666;7.146;2023-01-29T06:15:32;44.73;;;17.60;;
5225;SDS011;2632;51.666;7.146;2023-01-29T06:17:59;46.83;;;18.00;;
5225;SDS011;2632;51.666;7.146;2023-01-29T06:20:26;50.30;;;19.67;;
5225;SDS011;2632;51.666;7.146;2023-01-29T06:22:52;56.37;;;21.00;;
5225;SDS011;2632;51.666;7.146;2023-01-29T06:25:19;49.33;;;17.37;;
5225;SDS011;2632;51.666;7.146;2023-01-29T06:27:48;55.50;;;19.03;;
5225;SDS011;2632;51.666;7.146;2023-01-29T06:30:16;48.70;;;18.90;;
5225;SDS011;2632;51.666;7.146;2023-01-29T06:32:43;46.87;;;18.03;;
5225;SDS011;2632;51.666;7.146;2023-01-29T06:35:09;56.03;;;19.80;;
5225;SDS011;2632;51.666;7.146;2023-01-29T06:37:36;48.50;;;18.67;;
5225;SDS011;2632;51.666;7.146;2023-01-29T06:40:03;51.27;;;20.10;;
5225;SDS011;2632;51.666;7.146;2023-01-29T06:42:30;48.37;;;18.17;;
5225;SDS011;2632;51.666;7.146;2023-01-29T06:44:56;43.23;;;18.23;;
5225;SDS011;2632;51.666;7.146;2023-01-29T06:47:23;46.47;;;18.07;;
5225;SDS011;2632;51.666;7.146;2023-01-29T06:49:50;44.63;;;18.57;;
5225;SDS011;2632;51.666;7.146;2023-01-29T06:52:17;49.17;;;19.57;;
5225;SDS011;2632;51.666;7.146;2023-01-29T06:54:43;49.83;;;19.13;;
5225;SDS011;2632;51.666;7.146;2023-01-29T06:57:10;46.47;;;19.03;;
5225;SDS011;2632;51.666;7.146;2023-01-29T06:59:36;48.00;;;18.93;;
5225;SDS011;2632;51.666;7.146;2023-01-29T07:02:03;44.73;;;16.80;;
5225;SDS011;2632;51.666;7.146;2023-01-29T07:04:30;48.07;;;19.10;;
5225;SDS011;2632;51.666;7.146;2023-01-29T07:06:58;50.40;;;18.53;;
5225;SDS011;2632;51.666;7.146;2023-01-29T07:09:25;51.53;;;18.90;;
5225;SDS011;2632;51.666;7.146;2023-01-29T07:11:51;50.30;;;18.80;;
5225;SDS011;2632;51.666;7.146;2023-01-29T07:14:18;42.83;;;17.70;;
5225;SDS011;2632;51.666;7.146;2023-01-29T07:16:44;48.27;;;18.80;;
5225;SDS011;2632;51.666;7.146;2023-01-29T07:19:11;49.50;;;18.60;;
5225;SDS011;2632;51.666;7.146;2023-01-29T07:21:37;49.83;;;19.67;;
5225;SDS011;2632;51.666;7.146;2023-01-29T07:24:04;50.90;;;18.60;;
5225;SDS011;2632;51.666;7.146;2023-01-29T07:26:31;49.13;;;19.60;;
5225;SDS011;2632;51.666;7.146;2023-01-29T07:28:58;49.73;;;19.83;;
5225;SDS011;2632;51.666;7.146;2023-01-29T07:31:24;56.30;;;21.00;;
5225;SDS011;2632;51.666;7.146;2023-01-29T07:33:51;52.23;;;19.50;;
5225;SDS011;2632;51.666;7.146;2023-01-29T07:36:17;58.90;;;20.63;;
5225;SDS011;2632;51.666;7.146;2023-01-29T07:38:47;58.40;;;20.33;;
5225;SDS011;2632;51.666;7.146;2023-01-29T07:41:15;52.73;;;19.03;;
5225;SDS011;2632;51.666;7.146;2023-01-29T07:43:42;56.03;;;20.40;;
5225;SDS011;2632;51.666;7.146;2023-01-29T07:46:08;53.20;;;20.50;;
5225;SDS011;2632;51.666;7.146;2023-01-29T07:48:35;46.40;;;18.27;;
5225;SDS011;2632;51.666;7.146;2023-01-29T07:51:02;48.30;;;19.00;;
5225;SDS011;2632;51.666;7.146;2023-01-29T07:53:31;52.70;;;20.70;;
5225;SDS011;2632;51.666;7.146;2023-01-29T07:55:57;48.57;;;18.90;;
5225;SDS011;2632;51.666;7.146;2023-01-29T07:58:24;45.33;;;18.47;;
5225;SDS011;2632;51.666;7.146;2023-01-29T08:00:51;57.80;;;20.83;;
5225;SDS011;2632;51.666;7.146;2023-01-29T08:03:18;51.73;;;20.47;;
5225;SDS011;2632;51.666;7.146;2023-01-29T08:05:47;50.60;;;19.50;;
5225;SDS011;2632;51.666;7.146;2023-01-29T08:08:14;46.97;;;18.23;;
5225;SDS011;2632;51.666;7.146;2023-01-29T08:10:41;53.10;;;19.13;;
5225;SDS011;2632;51.666;7.146;2023-01-29T08:13:08;48.33;;;18.30;;
5225;SDS011;2632;51.666;7.146;2023-01-29T08:15:35;52.20;;;18.87;;
5225;SDS011;2632;51.666;7.146;2023-01-29T08:18:04;56.90;;;20.43;;
5225;SDS011;2632;51.666;7.146;2023-01-29T08:20:31;50.10;;;18.47;;
5225;SDS011;2632;51.666;7.146;2023-01-29T08:22:58;49.13;;;18.40;;
5225;SDS011;2632;51.666;7.146;2023-01-29T08:25:53;50.17;;;20.00;;
5225;SDS011;2632;51.666;7.146;2023-01-29T08:28:20;47.83;;;19.87;;
5225;SDS011;2632;51.666;7.146;2023-01-29T08:30:46;51.23;;;19.20;;
5225;SDS011;2632;51.666;7.146;2023-01-29T08:33:13;50.87;;;20.10;;
5225;SDS011;2632;51.666;7.146;2023-01-29T08:35:41;49.30;;;18.73;;
5225;SDS011;2632;51.666;7.146;2023-01-29T08:38:08;48.90;;;19.70;;
5225;SDS011;2632;51.666;7.146;2023-01-29T08:40:35;57.97;;;19.97;;
5225;SDS011;2632;51.666;7.146;2023-01-29T08:43:04;49.70;;;19.70;;
5225;SDS011;2632;51.666;7.146;2023-01-29T08:45:35;47.90;;;19.87;;
5225;SDS011;2632;51.666;7.146;2023-01-29T08:48:05;56.30;;;19.47;;
5225;SDS011;2632;51.666;7.146;2023-01-29T08:50:32;44.87;;;17.77;;
5225;SDS011;2632;51.666;7.146;2023-01-29T08:53:00;48.07;;;18.23;;
5225;SDS011;2632;51.666;7.146;2023-01-29T08:55:28;59.83;;;21.37;;
5225;SDS011;2632;51.666;7.146;2023-01-29T08:57:55;55.70;;;22.03;;
5225;SDS011;2632;51.666;7.146;2023-01-29T09:00:24;47.87;;;20.70;;
5225;SDS011;2632;51.666;7.146;2023-01-29T09:02:51;51.90;;;21.17;;
5225;SDS011;2632;51.666;7.146;2023-01-29T09:05:18;56.40;;;21.50;;
5225;SDS011;2632;51.666;7.146;2023-01-29T09:07:45;54.73;;;21.07;;
5225;SDS011;2632;51.666;7.146;2023-01-29T09:10:12;52.77;;;19.00;;
5225;SDS011;2632;51.666;7.146;2023-01-29T09:12:38;61.90;;;18.70;;
5225;SDS011;2632;51.666;7.146;2023-01-29T09:15:05;62.17;;;21.50;;
5225;SDS011;2632;51.666;7.146;2023-01-29T09:17:32;58.33;;;20.10;;
5225;SDS011;2632;51.666;7.146;2023-01-29T09:19:59;51.90;;;21.03;;
5225;SDS011;2632;51.666;7.146;2023-01-29T09:22:26;52.80;;;20.40;;
5225;SDS011;2632;51.666;7.146;2023-01-29T09:24:53;60.10;;;20.80;;
5225;SDS011;2632;51.666;7.146;2023-01-29T09:27:19;50.97;;;19.10;;
5225;SDS011;2632;51.666;7.146;2023-01-29T09:29:46;61.63;;;19.53;;
5225;SDS011;2632;51.666;7.146;2023-01-29T09:32:13;54.73;;;19.80;;
5225;SDS011;2632;51.666;7.146;2023-01-29T09:34:41;54.00;;;20.20;;
5225;SDS011;2632;51.666;7.146;2023-01-29T09:37:08;54.70;;;20.10;;
5225;SDS011;2632;51.666;7.146;2023-01-29T09:39:35;49.67;;;20.23;;
5225;SDS011;2632;51.666;7.146;2023-01-29T09:42:07;49.13;;;20.00;;
5225;SDS011;2632;51.666;7.146;2023-01-29T09:44:46;61.73;;;20.17;;
5225;SDS011;2632;51.666;7.146;2023-01-29T09:47:18;50.47;;;19.53;;
5225;SDS011;2632;51.666;7.146;2023-01-29T09:49:50;44.43;;;17.90;;
5225;SDS011;2632;51.666;7.146;2023-01-29T09:52:24;49.20;;;18.27;;
5225;SDS011;2632;51.666;7.146;2023-01-29T09:54:58;50.80;;;19.40;;
5225;SDS011;2632;51.666;7.146;2023-01-29T09:57:30;49.47;;;19.53;;
5225;SDS011;2632;51.666;7.146;2023-01-29T10:00:46;58.73;;;21.23;;
5225;SDS011;2632;51.666;7.146;2023-01-29T10:06:14;56.17;;;19.83;;
5225;SDS011;2632;51.666;7.146;2023-01-29T10:09:17;47.33;;;19.47;;
5225;SDS011;2632;51.666;7.146;2023-01-29T10:12:32;57.47;;;21.10;;
5225;SDS011;2632;51.666;7.146;2023-01-29T10:15:17;55.00;;;20.63;;
5225;SDS011;2632;51.666;7.146;2023-01-29T10:18:22;59.57;;;20.53;;
5225;SDS011;2632;51.666;7.146;2023-01-29T10:21:18;49.47;;;19.10;;
5225;SDS011;2632;51.666;7.146;2023-01-29T10:23:50;46.30;;;19.80;;
5225;SDS011;2632;51.666;7.146;2023-01-29T10:26:26;51.10;;;18.73;;
5225;SDS011;2632;51.666;7.146;2023-01-29T10:28:54;43.87;;;18.70;;
5225;SDS011;2632;51.666;7.146;2023-01-29T10:31:26;54.20;;;19.97;;
5225;SDS011;2632;51.666;7.146;2023-01-29T10:34:42;50.30;;;19.77;;
5225;SDS011;2632;51.666;7.146;2023-01-29T10:36:50;55.23;;;20.33;;
5225;SDS011;2632;51.666;7.146;2023-01-29T10:39:21;50.80;;;20.77;;
5225;SDS011;2632;51.666;7.146;2023-01-29T10:47:48;51.00;;;18.47;;
5225;SDS011;2632;51.666;7.146;2023-01-29T10:53:03;55.40;;;19.63;;
5225;SDS011;2632;51.666;7.146;2023-01-29T10:56:05;56.60;;;20.80;;
5225;SDS011;2632;51.666;7.146;2023-01-29T11:01:36;46.93;;;18.20;;
5225;SDS011;2632;51.666;7.146;2023-01-29T11:04:04;51.37;;;19.43;;
5225;SDS011;2632;51.666;7.146;2023-01-29T11:06:36;50.10;;;19.40;;
5225;SDS011;2632;51.666;7.146;2023-01-29T11:12:09;52.93;;;19.33;;
5225;SDS011;2632;51.666;7.146;2023-01-29T11:17:15;52.77;;;19.20;;
5225;SDS011;2632;51.666;7.146;2023-01-29T11:19:44;43.07;;;18.00;;
5225;SDS011;2632;51.666;7.146;2023-01-29T11:22:13;54.53;;;20.33;;
5225;SDS011;2632;51.666;7.146;2023-01-29T11:24:42;43.80;;;18.20;;
5225;SDS011;2632;51.666;7.146;2023-01-29T11:27:20;45.07;;;18.50;;
5225;SDS011;2632;51.666;7.146;2023-01-29T11:29:54;44.73;;;18.10;;
5225;SDS011;2632;51.666;7.146;2023-01-29T11:37:44;50.77;;;19.30;;
5225;SDS011;2632;51.666;7.146;2023-01-29T11:42:47;52.00;;;18.53;;
5225;SDS011;2632;51.666;7.146;2023-01-29T11:45:30;49.67;;;18.43;;
5225;SDS011;2632;51.666;7.146;2023-01-29T11:48:00;48.30;;;19.93;;
5225;SDS011;2632;51.666;7.146;2023-01-29T11:50:28;49.93;;;18.00;;
5225;SDS011;2632;51.666;7.146;2023-01-29T11:52:58;52.87;;;18.33;;
5225;SDS011;2632;51.666;7.146;2023-01-29T11:55:26;45.20;;;18.43;;
5225;SDS011;2632;51.666;7.146;2023-01-29T11:58:16;50.87;;;20.43;;
5225;SDS011;2632;51.666;7.146;2023-01-29T12:00:51;45.27;;;18.57;;
5225;SDS011;2632;51.666;7.146;2023-01-29T12:03:32;44.13;;;17.40;;
5225;SDS011;2632;51.666;7.146;2023-01-29T12:08:35;45.63;;;17.87;;
5225;SDS011;2632;51.666;7.146;2023-01-29T12:11:08;39.87;;;16.37;;
5225;SDS011;2632;51.666;7.146;2023-01-29T12:13:37;48.70;;;18.03;;
5225;SDS011;2632;51.666;7.146;2023-01-29T12:16:13;48.43;;;18.27;;
5225;SDS011;2632;51.666;7.146;2023-01-29T12:18:49;52.77;;;18.43;;
5225;SDS011;2632;51.666;7.146;2023-01-29T12:21:22;46.07;;;17.60;;
5225;SDS011;2632;51.666;7.146;2023-01-29T12:24:00;48.50;;;19.47;;
5225;SDS011;2632;51.666;7.146;2023-01-29T12:26:52;42.73;;;16.87;;
5225;SDS011;2632;51.666;7.146;2023-01-29T12:29:30;46.20;;;17.63;;
5225;SDS011;2632;51.666;7.146;2023-01-29T12:32:48;46.63;;;18.13;;
5225;SDS011;2632;51.666;7.146;2023-01-29T12:35:06;44.33;;;18.27;;
5225;SDS011;2632;51.666;7.146;2023-01-29T12:37:45;51.63;;;18.90;;
5225;SDS011;2632;51.666;7.146;2023-01-29T12:40:25;41.53;;;16.10;;
5225;SDS011;2632;51.666;7.146;2023-01-29T12:42:55;45.67;;;18.47;;
5225;SDS011;2632;51.666;7.146;2023-01-29T12:45:27;45.57;;;17.97;;
5225;SDS011;2632;51.666;7.146;2023-01-29T12:48:05;40.70;;;17.70;;
5225;SDS011;2632;51.666;7.146;2023-01-29T12:50:35;46.07;;;18.73;;
5225;SDS011;2632;51.666;7.146;2023-01-29T12:53:15;43.53;;;18.60;;
5225;SDS011;2632;51.666;7.146;2023-01-29T12:56:01;40.17;;;17.43;;
5225;SDS011;2632;51.666;7.146;2023-01-29T12:58:51;38.20;;;15.63;;
5225;SDS011;2632;51.666;7.146;2023-01-29T13:01:27;46.37;;;17.37;;
5225;SDS011;2632;51.666;7.146;2023-01-29T13:04:18;39.53;;;16.57;;
5225;SDS011;2632;51.666;7.146;2023-01-29T13:07:12;44.73;;;17.10;;
5225;SDS011;2632;51.666;7.146;2023-01-29T13:09:45;41.23;;;17.50;;
5225;SDS011;2632;51.666;7.146;2023-01-29T13:12:16;42.60;;;17.57;;
5225;SDS011;2632;51.666;7.146;2023-01-29T13:17:17;41.43;;;17.10;;
5225;SDS011;2632;51.666;7.146;2023-01-29T13:19:58;44.87;;;18.10;;
5225;SDS011;2632;51.666;7.146;2023-01-29T13:22:31;41.37;;;16.50;;
5225;SDS011;2632;51.666;7.146;2023-01-29T13:25:01;42.40;;;16.40;;
5225;SDS011;2632;51.666;7.146;2023-01-29T13:27:32;40.73;;;15.70;;
5225;SDS011;2632;51.666;7.146;2023-01-29T13:29:59;46.90;;;17.90;;
5225;SDS011;2632;51.666;7.146;2023-01-29T13:32:27;53.30;;;19.13;;
5225;SDS011;2632;51.666;7.146;2023-01-29T13:34:56;45.10;;;17.83;;
5225;SDS011;2632;51.666;7.146;2023-01-29T13:37:28;46.73;;;18.67;;
5225;SDS011;2632;51.666;7.146;2023-01-29T13:40:02;45.97;;;17.23;;
5225;SDS011;2632;51.666;7.146;2023-01-29T13:42:38;42.70;;;16.90;;
5225;SDS011;2632;51.666;7.146;2023-01-29T13:45:17;44.43;;;16.40;;
5225;SDS011;2632;51.666;7.146;2023-01-29T13:47:47;47.07;;;18.87;;
5225;SDS011;2632;51.666;7.146;2023-01-29T13:50:35;45.57;;;17.17;;
5225;SDS011;2632;51.666;7.146;2023-01-29T13:53:05;49.27;;;17.10;;
5225;SDS011;2632;51.666;7.146;2023-01-29T13:55:34;41.00;;;16.40;;
5225;SDS011;2632;51.666;7.146;2023-01-29T13:58:14;53.73;;;18.40;;
5225;SDS011;2632;51.666;7.146;2023-01-29T14:05:57;38.80;;;15.10;;
5225;SDS011;2632;51.666;7.146;2023-01-29T14:13:47;39.80;;;15.80;;
5225;SDS011;2632;51.666;7.146;2023-01-29T14:18:45;42.90;;;16.40;;
5225;SDS011;2632;51.666;7.146;2023-01-29T14:21:21;46.10;;;17.80;;
5225;SDS011;2632;51.666;7.146;2023-01-29T14:23:53;43.53;;;16.00;;
5225;SDS011;2632;51.666;7.146;2023-01-29T14:29:16;40.60;;;16.97;;
5225;SDS011;2632;51.666;7.146;2023-01-29T14:34:50;43.83;;;16.67;;
5225;SDS011;2632;51.666;7.146;2023-01-29T14:37:34;41.70;;;16.00;;
5225;SDS011;2632;51.666;7.146;2023-01-29T14:42:37;41.33;;;16.27;;
5225;SDS011;2632;51.666;7.146;2023-01-29T14:45:29;42.93;;;15.70;;
5225;SDS011;2632;51.666;7.146;2023-01-29T14:48:02;45.77;;;17.33;;
5225;SDS011;2632;51.666;7.146;2023-01-29T14:58:35;40.43;;;15.50;;
5225;SDS011;2632;51.666;7.146;2023-01-29T15:01:14;35.37;;;15.20;;
5225;SDS011;2632;51.666;7.146;2023-01-29T15:04:32;44.67;;;16.40;;
5225;SDS011;2632;51.666;7.146;2023-01-29T15:07:05;45.90;;;16.40;;
5225;SDS011;2632;51.666;7.146;2023-01-29T15:09:56;39.80;;;14.93;;
5225;SDS011;2632;51.666;7.146;2023-01-29T15:12:51;43.77;;;16.13;;
5225;SDS011;2632;51.666;7.146;2023-01-29T15:15:46;49.23;;;17.37;;
5225;SDS011;2632;51.666;7.146;2023-01-29T15:18:19;47.00;;;16.17;;
5225;SDS011;2632;51.666;7.146;2023-01-29T15:21:03;43.70;;;15.93;;
5225;SDS011;2632;51.666;7.146;2023-01-29T15:23:39;50.57;;;18.40;;
5225;SDS011;2632;51.666;7.146;2023-01-29T15:26:12;39.67;;;16.40;;
5225;SDS011;2632;51.666;7.146;2023-01-29T15:28:53;43.10;;;16.27;;
5225;SDS011;2632;51.666;7.146;2023-01-29T15:31:29;43.47;;;16.90;;
5225;SDS011;2632;51.666;7.146;2023-01-29T15:33:56;47.17;;;17.67;;
5225;SDS011;2632;51.666;7.146;2023-01-29T15:36:28;50.57;;;15.90;;
5225;SDS011;2632;51.666;7.146;2023-01-29T15:41:38;45.93;;;16.97;;
5225;SDS011;2632;51.666;7.146;2023-01-29T15:44:15;46.97;;;19.00;;
5225;SDS011;2632;51.666;7.146;2023-01-29T15:46:55;46.67;;;17.60;;
5225;SDS011;2632;51.666;7.146;2023-01-29T15:49:31;39.57;;;16.17;;
5225;SDS011;2632;51.666;7.146;2023-01-29T15:52:02;41.30;;;15.70;;
5225;SDS011;2632;51.666;7.146;2023-01-29T15:54:31;43.83;;;18.13;;
5225;SDS011;2632;51.666;7.146;2023-01-29T15:56:59;46.23;;;17.20;;
5225;SDS011;2632;51.666;7.146;2023-01-29T15:59:28;40.70;;;16.33;;
5225;SDS011;2632;51.666;7.146;2023-01-29T16:02:20;39.30;;;15.63;;
5225;SDS011;2632;51.666;7.146;2023-01-29T16:05:10;40.77;;;16.47;;
5225;SDS011;2632;51.666;7.146;2023-01-29T16:08:04;43.00;;;17.27;;
5225;SDS011;2632;51.666;7.146;2023-01-29T16:10:32;45.97;;;17.60;;
5225;SDS011;2632;51.666;7.146;2023-01-29T16:12:59;44.50;;;17.07;;
5225;SDS011;2632;51.666;7.146;2023-01-29T16:17:59;51.47;;;17.70;;
5225;SDS011;2632;51.666;7.146;2023-01-29T16:20:31;43.30;;;16.40;;
5225;SDS011;2632;51.666;7.146;2023-01-29T16:23:14;49.50;;;18.00;;
5225;SDS011;2632;51.666;7.146;2023-01-29T16:25:47;43.70;;;16.40;;
5225;SDS011;2632;51.666;7.146;2023-01-29T16:28:14;46.77;;;18.20;;
5225;SDS011;2632;51.666;7.146;2023-01-29T16:30:42;52.30;;;17.73;;
5225;SDS011;2632;51.666;7.146;2023-01-29T16:33:14;45.23;;;17.07;;
5225;SDS011;2632;51.666;7.146;2023-01-29T16:35:42;44.70;;;18.00;;
5225;SDS011;2632;51.666;7.146;2023-01-29T16:38:21;42.70;;;17.43;;
5225;SDS011;2632;51.666;7.146;2023-01-29T16:41:13;46.10;;;19.10;;
5225;SDS011;2632;51.666;7.146;2023-01-29T16:43:44;53.80;;;19.07;;
5225;SDS011;2632;51.666;7.146;2023-01-29T16:46:17;46.07;;;19.77;;
5225;SDS011;2632;51.666;7.146;2023-01-29T16:48:49;41.20;;;15.73;;
5225;SDS011;2632;51.666;7.146;2023-01-29T16:56:23;45.40;;;17.03;;
5225;SDS011;2632;51.666;7.146;2023-01-29T16:58:51;44.77;;;17.77;;
5225;SDS011;2632;51.666;7.146;2023-01-29T17:01:19;46.67;;;17.33;;
5225;SDS011;2632;51.666;7.146;2023-01-29T17:03:54;45.53;;;17.67;;
5225;SDS011;2632;51.666;7.146;2023-01-29T17:06:32;44.57;;;17.80;;
5225;SDS011;2632;51.666;7.146;2023-01-29T17:08:59;44.93;;;17.23;;
5225;SDS011;2632;51.666;7.146;2023-01-29T17:11:36;37.60;;;16.67;;
5225;SDS011;2632;51.666;7.146;2023-01-29T17:14:05;44.30;;;17.17;;
5225;SDS011;2632;51.666;7.146;2023-01-29T17:16:34;45.00;;;17.40;;
5225;SDS011;2632;51.666;7.146;2023-01-29T17:19:13;37.30;;;16.47;;
5225;SDS011;2632;51.666;7.146;2023-01-29T17:21:43;38.47;;;16.17;;
5225;SDS011;2632;51.666;7.146;2023-01-29T17:24:10;35.30;;;15.20;;